• Join FlightAware (Why Join?)
  • Login
  • US Flag 
09:50PM EDT


 

Airport Tracker/Info


-or-


 

Live Flight TrackerFlight Track Log ✈ UAL33 ✈ 23-Jul-2013 ✈ KIAH - KORD

Flight Track Log - Related Links

Times and Time Zones

All times are in EDT time to prevent confusion due to time zone crossing. See the UAL33 flight status page for this flight to view local times or setup timezone preferences in your user account.

Time Position Orientation Groundspeed Altitude Reporting Facility
EDT Latitude Longitude Course Direction KTS MPH feet Rate Location/Type
05:26PM 29.9624 -95.3458 272° West 162 186 600  Level FlightAware ADS-B
05:26PM 29.9507 -95.3426 167° South 162 186 1,300 2,580 Climbing FlightAware ADS-B
05:26PM 29.9460 -95.3436 190° South 158 182 1,600 2,400 Climbing FlightAware ADS-B
05:26PM 29.9433 -95.3450 204° Southwest 161 185 1,700 1,320 Climbing FlightAware ADS-B
05:26PM 29.9404 -95.3474 216° Southwest 165 190 1,800 1,500 Climbing FlightAware ADS-B
05:27PM 29.9369 -95.3528 233° Southwest 177 204 2,000 1,500 Climbing FlightAware ADS-B
05:27PM 29.9354 -95.3572 249° West 186 214 2,100 1,320 Climbing FlightAware ADS-B
05:27PM 29.9348 -95.3612 260° West 195 224 2,200 1,680 Climbing FlightAware ADS-B
05:27PM 29.9347 -95.3653 268° West 203 234 2,300 1,680 Climbing FlightAware ADS-B
05:27PM 29.9354 -95.3697 280° West 211 243 2,400 1,500 Climbing FlightAware ADS-B
05:27PM 29.9366 -95.3741 287° West 219 252 2,500 1,980 Climbing FlightAware ADS-B
05:27PM 29.9389 -95.3792 297° West 225 259 2,700 1,500 Climbing FlightAware ADS-B
05:27PM 29.9409 -95.3824 306° West 233 268 2,700 720 Level FlightAware ADS-B
05:27PM 29.9442 -95.3863 314° West 241 277 2,800 1,320 Climbing FlightAware ADS-B
05:27PM 29.9479 -95.3898 321° Northwest 249 287 2,900 1,680 Climbing FlightAware ADS-B
05:27PM 29.9513 -95.3922 329° Northwest 256 295 3,000 2,220 Climbing FlightAware ADS-B
05:27PM 29.9565 -95.3948 337° Northwest 266 306 3,200 2,220 Climbing FlightAware ADS-B
05:27PM 29.9603 -95.3960 345° North 269 310 3,300 2,160 Climbing FlightAware ADS-B
05:27PM 29.9709 -95.3982 350° North 278 320 3,600 1,500 Climbing FlightAware ADS-B
05:28PM 29.9907 -95.4002 355° North 285 328 3,900 840 Climbing FlightAware ADS-B
05:28PM 30.0048 -95.4014 356° North 281 323 4,000 180 Climbing FlightAware ADS-B
05:28PM 30.0245 -95.4033 355° North 281 323 4,000 -240 Level FlightAware ADS-B
05:28PM 30.0450 -95.4054 355° North 282 325 3,900  Descending FlightAware ADS-B
05:29PM 30.0657 -95.4073 355° North 283 326 4,000  Climbing FlightAware ADS-B
05:29PM 30.0855 -95.4091 356° North 281 323 3,900  Descending FlightAware ADS-B
05:29PM 30.1062 -95.4111 355° North 280 322 4,000 240 Climbing FlightAware ADS-B
05:29PM 30.1132 -95.4123 352° North 281 323 4,000 660 Level FlightAware ADS-B
05:29PM 30.1188 -95.4138 347° North 283 326 4,100 1,800 Climbing FlightAware ADS-B
05:29PM 30.1261 -95.4164 343° North 282 325 4,300 3,120 Climbing FlightAware ADS-B
05:30PM 30.1422 -95.4227 341° North 282 325 5,100 3,780 Climbing FlightAware ADS-B
05:30PM 30.1493 -95.4259 339° North 282 325 5,500 3,840 Climbing FlightAware ADS-B
05:30PM 30.1630 -95.4330 336° Northwest 284 327 6,200 3,420 Climbing FlightAware ADS-B
05:31PM 30.2082 -95.4592 333° Northwest 287 330 8,300 3,360 Climbing FlightAware ADS-B
05:31PM 30.2264 -95.4697 334° Northwest 293 337 9,200 3,240 Climbing FlightAware ADS-B
05:31PM 30.2455 -95.4808 333° Northwest 297 342 10,000 3,000 Climbing FlightAware ADS-B
05:32PM 30.2834 -95.5033 333° Northwest 305 351 11,500 3,240 Climbing FlightAware ADS-B
05:32PM 30.3219 -95.5260 333° Northwest 310 357 13,300 3,420 Climbing FlightAware ADS-B
05:33PM 30.3608 -95.5489 333° Northwest 317 365 15,000 2,880 Climbing FlightAware ADS-B
05:33PM 30.4005 -95.5723 333° Northwest 325 374 16,200 1,980 Climbing FlightAware ADS-B
05:34PM 30.4476 -95.6001 333° Northwest 355 409 17,100 2,280 Climbing FlightAware ADS-B
05:34PM 30.4931 -95.6272 333° Northwest 365 420 18,600 2,820 Climbing FlightAware ADS-B
05:35PM 30.5457 -95.6582 333° Northwest 371 427 20,200 2,640 Climbing FlightAware ADS-B
05:35PM 30.5937 -95.6838 335° Northwest 379 436 21,500 2,460 Climbing FlightAware ADS-B
05:36PM 30.6428 -95.7092 336° Northwest 387 445 22,700 2,160 Climbing FlightAware ADS-B
05:36PM 30.6920 -95.7352 336° Northwest 396 456 23,700 1,560 Climbing FlightAware ADS-B
05:37PM 30.7439 -95.7629 335° Northwest 418 481 24,300 1,080 Climbing FlightAware ADS-B
05:37PM 30.7993 -95.7928 335° Northwest 441 507 24,800 960 Climbing FlightAware ADS-B
05:38PM 30.8562 -95.8235 335° Northwest 460 529 25,300 1,380 Climbing FlightAware ADS-B
05:38PM 30.9153 -95.8554 335° Northwest 469 540 26,200 1,620 Climbing FlightAware ADS-B
05:39PM 30.9770 -95.8887 335° Northwest 476 548 27,000 1,680 Climbing FlightAware ADS-B
05:39PM 31.0436 -95.9247 335° Northwest 483 556 28,000 1,620 Climbing FlightAware ADS-B
05:40PM 31.0870 -95.9477 336° Northwest 488 562 28,500 1,500 Climbing FlightAware ADS-B
05:40PM 31.1064 -95.9566 339° North 490 564 28,800 1,320 Climbing FlightAware ADS-B
05:40PM 31.1468 -95.9719 342° North 495 570 29,100 1,320 Climbing FlightAware ADS-B
05:41PM 31.2165 -95.9893 348° North 502 578 29,900 1,440 Climbing FlightAware ADS-B
05:41PM 31.2855 -96.0056 349° North 506 582 30,600 1,320 Climbing FlightAware ADS-B
05:42PM 31.3557 -96.0221 349° North 510 587 31,300 1,980 Climbing FlightAware ADS-B
05:42PM 31.4457 -96.0431 349° North 505 581 32,900 2,400 Climbing FlightAware ADS-B
05:43PM 31.5176 -96.0601 349° North 491 565 34,200 2,220 Climbing FlightAware ADS-B
05:43PM 31.5880 -96.0770 348° North 481 554 35,400 1,980 Climbing FlightAware
05:44PM 31.6421 -96.0894 349° North 481 554 36,100 1,800 Climbing FlightAware ADS-B
05:44PM 31.7133 -96.1048 350° North 474 545 37,100 1,740 Climbing FlightAware ADS-B
05:45PM 31.7626 -96.1081 357° North 471 542 37,700 1,440 Climbing FlightAware ADS-B
05:45PM 31.8298 -96.1026 North 469 540 38,400 1,200 Climbing FlightAware ADS-B
05:46PM 31.8969 -96.0957 North 469 540 39,000 1,020 Climbing FlightAware ADS-B
05:46PM 31.9665 -96.0885 North 469 540 39,500 1,020 Climbing FlightAware ADS-B
05:47PM 32.0850 -96.0760 North 467 537 40,500 900 Climbing FlightAware
05:48PM 32.1710 -96.0670 North 465 535 41,000 480 Climbing FlightAware
05:48PM 32.2125 -96.0577 11° North 463 533 41,000  Level FlightAware ADS-B
05:49PM 32.3410 -95.9850 26° Northeast 464 534 41,000  Level FlightAware
05:50PM 32.4190 -95.9320 30° Northeast 464 534 41,000  Level FlightAware
05:51PM 32.4960 -95.8800 30° Northeast 463 533 41,000  Level FlightAware
05:51PM 32.5740 -95.8270 30° Northeast 464 534 41,000  Level FlightAware
05:52PM 32.6510 -95.7750 30° Northeast 462 532 41,000  Level FlightAware
05:53PM 32.7290 -95.7220 30° Northeast 462 532 41,000  Level FlightAware
05:54PM 32.8070 -95.6670 31° Northeast 463 533 41,000  Level FlightAware
05:54PM 32.8850 -95.6130 30° Northeast 465 535 41,000  Level FlightAware
05:55PM 32.9560 -95.5740 25° Northeast 464 534 41,000  Level FlightAware
05:56PM 33.0380 -95.5340 22° Northeast 463 533 41,000  Level FlightAware
05:56PM 33.1250 -95.4910 22° Northeast 460 529 41,000  Level FlightAware
05:57PM 33.2030 -95.4540 22° Northeast 461 531 41,000  Level FlightAware
05:58PM 33.2950 -95.4260 14° North 464 534 41,000  Level FlightAware
05:58PM 33.3800 -95.4050 12° North 465 535 41,000  Level FlightAware
05:59PM 33.4720 -95.3810 12° North 465 535 41,000  Level FlightAware
06:00PM 33.5520 -95.3610 12° North 466 536 41,000  Level FlightAware
06:00PM 33.6280 -95.3420 12° North 467 537 41,000  Level FlightAware
06:01PM 33.7150 -95.3200 12° North 469 540 41,000  Level FlightAware
06:02PM 33.8080 -95.2970 12° North 469 540 41,000  Level FlightAware
06:02PM 33.9000 -95.2730 12° North 470 541 41,000  Level FlightAware
06:03PM 33.9770 -95.2570 10° North 467 537 41,000  Level FlightAware
06:03PM 34.0200 -95.2650 351° North 465 535 41,000  Level FlightAware
06:04PM 34.0940 -95.3070 335° Northwest 468 539 41,000  Level FlightAware
06:05PM 34.1810 -95.3620 332° Northwest 467 537 41,000  Level FlightAware
06:05PM 34.2620 -95.4130 333° Northwest 466 536 41,000  Level FlightAware
06:06PM 34.3350 -95.4580 333° Northwest 463 533 41,000  Level FlightAware
06:07PM 34.4220 -95.5130 332° Northwest 465 535 41,000  Level FlightAware
06:07PM 34.4730 -95.5380 338° Northwest 467 537 41,000  Level FlightAware
06:08PM 34.5700 -95.5170 10° North 477 549 41,000  Level FlightAware
06:09PM 34.6440 -95.4620 31° Northeast 476 548 41,000  Level FlightAware
06:09PM 34.7270 -95.3990 32° Northeast 478 550 41,000  Level FlightAware
06:10PM 34.8180 -95.3300 32° Northeast 478 550 41,000  Level FlightAware
06:11PM 34.9060 -95.2630 32° Northeast 482 555 41,000  Level FlightAware
06:12PM 34.9850 -95.2030 32° Northeast 481 554 41,000  Level FlightAware
06:12PM 35.0550 -95.1500 32° Northeast 481 554 41,000  Level FlightAware
06:13PM 35.1290 -95.0940 32° Northeast 482 555 41,000  Level FlightAware
06:14PM 35.2070 -95.0330 33° Northeast 482 555 41,000  Level FlightAware
06:15PM 35.3040 -94.9590 32° Northeast 487 560 41,000  Level FlightAware
06:15PM 35.3890 -94.8940 32° Northeast 486 559 41,000  Level FlightAware
06:16PM 35.4650 -94.8350 32° Northeast 486 559 41,000  Level FlightAware
06:17PM 35.5480 -94.7710 32° Northeast 487 560 41,000  Level FlightAware
06:17PM 35.6250 -94.7120 32° Northeast 486 559 41,000  Level FlightAware
06:18PM 35.7070 -94.6480 32° Northeast 486 559 41,000  Level FlightAware
06:19PM 35.8000 -94.5760 32° Northeast 484 557 41,000  Level FlightAware
06:20PM 35.8790 -94.5140 32° Northeast 484 557 41,000  Level FlightAware
06:21PM 35.9870 -94.4300 32° Northeast 486 559 41,000  Level FlightAware
06:21PM 36.0660 -94.3680 32° Northeast 486 559 41,000  Level FlightAware
06:22PM 36.1420 -94.3080 33° Northeast 485 558 41,000  Level FlightAware
06:23PM 36.2170 -94.2490 32° Northeast 486 559 41,000  Level FlightAware
06:23PM 36.2790 -94.2000 32° Northeast 486 559 41,000  Level FlightAware
06:24PM 36.3640 -94.1330 32° Northeast 485 558 41,000  Level FlightAware
06:25PM 36.4410 -94.0720 33° Northeast 486 559 41,000  Level FlightAware
06:25PM 36.5010 -94.0240 33° Northeast 486 559 41,000  Level FlightAware
06:26PM 36.5850 -93.9570 33° Northeast 488 562 41,000  Level FlightAware
06:27PM 36.6680 -93.8910 33° Northeast 491 565 41,000  Level FlightAware
06:27PM 36.7440 -93.8290 33° Northeast 491 565 41,000  Level FlightAware
06:28PM 36.8280 -93.7620 33° Northeast 491 565 41,000  Level FlightAware
06:29PM 36.9050 -93.7010 32° Northeast 492 566 41,000  Level FlightAware
06:29PM 36.9900 -93.6320 33° Northeast 492 566 41,000  Level FlightAware
06:30PM 37.0660 -93.5700 33° Northeast 494 568 41,000  Level FlightAware
06:31PM 37.1440 -93.5070 33° Northeast 495 570 41,000  Level FlightAware
06:31PM 37.2280 -93.4380 33° Northeast 491 565 41,000  Level FlightAware
06:32PM 37.3020 -93.3780 33° Northeast 493 567 41,000  Level FlightAware
06:33PM 37.3850 -93.3070 34° Northeast 495 570 41,000  Level FlightAware
06:34PM 37.4680 -93.2310 36° Northeast 497 572 41,000  Level FlightAware
06:34PM 37.5420 -93.1630 36° Northeast 499 574 41,000  Level FlightAware
06:35PM 37.6250 -93.0860 36° Northeast 502 578 41,000  Level FlightAware
06:36PM 37.6990 -93.0170 36° Northeast 504 580 41,000  Level FlightAware
06:36PM 37.7820 -92.9400 36° Northeast 502 578 41,000  Level FlightAware
06:37PM 37.8400 -92.8850 37° Northeast 502 578 41,000  Level FlightAware
06:38PM 37.9240 -92.8070 36° Northeast 504 580 41,000  Level FlightAware
06:38PM 37.9990 -92.7360 37° Northeast 506 582 41,000  Level FlightAware
06:39PM 38.0630 -92.6760 36° Northeast 505 581 41,000  Level FlightAware
06:40PM 38.1460 -92.5980 36° Northeast 503 579 41,000  Level FlightAware
06:40PM 38.2230 -92.5250 37° Northeast 504 580 41,000  Level FlightAware
06:41PM 38.2930 -92.4580 37° Northeast 505 581 41,000  Level FlightAware
06:42PM 38.4030 -92.3550 36° Northeast 507 583 41,000  Level FlightAware
06:43PM 38.4610 -92.3020 36° Northeast 507 583 41,000  Level FlightAware
06:43PM 38.5380 -92.2300 36° Northeast 507 583 41,000  Level FlightAware
06:44PM 38.6180 -92.1500 38° Northeast 507 583 41,000  Level FlightAware
06:45PM 38.7150 -92.0600 36° Northeast 507 583 41,000  Level FlightAware
06:45PM 38.8010 -91.9720 39° Northeast 506 582 41,000  Level FlightAware
06:46PM 38.8640 -91.9110 37° Northeast 506 582 41,000  Level FlightAware
06:47PM 38.9400 -91.8370 37° Northeast 506 582 41,000 -120 Level FlightAware
06:48PM 39.0550 -91.7250 37° Northeast 508 585 40,900 -120 Descending FlightAware
06:48PM 39.1340 -91.6490 37° Northeast 509 586 40,900 -1,440 Level FlightAware
06:49PM 39.2100 -91.5730 38° Northeast 513 590 38,900 -1,500 Descending FlightAware
06:50PM 39.2860 -91.5000 37° Northeast 513 590 38,900 -1,380 Level FlightAware
06:51PM 39.3760 -91.4100 38° Northeast 513 590 37,000 -1,260 Descending FlightAware
06:51PM 39.4700 -91.3180 37° Northeast 514 592 37,000  Level FlightAware
06:52PM 39.5740 -91.2150 37° Northeast 512 589 37,000  Level FlightAware
06:53PM 39.6690 -91.1190 38° Northeast 517 595 37,000  Level FlightAware
06:54PM 39.7470 -91.0410 38° Northeast 518 596 37,000  Level FlightAware
06:55PM 39.8300 -90.9580 38° Northeast 519 597 37,000  Level FlightAware
06:55PM 39.8850 -90.9030 37° Northeast 520 598 37,000  Level FlightAware
06:56PM 39.9740 -90.8130 38° Northeast 521 600 37,000 -120 Level FlightAware
06:56PM 40.0500 -90.7360 38° Northeast 521 600 36,900 -1,080 Descending FlightAware
06:57PM 40.1330 -90.6520 38° Northeast 514 592 35,500 -2,340 Descending FlightAware
06:58PM 40.2150 -90.5690 38° Northeast 520 598 33,600 -1,860 Descending FlightAware
06:59PM 40.2880 -90.4940 38° Northeast 519 597 33,000 -480 Descending FlightAware
06:59PM 40.3710 -90.4090 38° Northeast 519 597 33,000  Level FlightAware
07:00PM 40.4430 -90.3350 38° Northeast 519 597 33,000 -480 Level FlightAware
07:00PM 40.5110 -90.2650 38° Northeast 516 594 32,500 -1,380 Descending FlightAware
07:01PM 40.5870 -90.1870 38° Northeast 505 581 31,200 -1,980 Descending FlightAware
07:02PM 40.6690 -90.1020 38° Northeast 493 567 29,600 -1,980 Descending FlightAware
07:03PM 40.7500 -90.0180 38° Northeast 480 552 28,300 -1,620 Descending FlightAware
07:03PM 40.8150 -89.9500 38° Northeast 465 535 27,400 -1,260 Descending FlightAware
07:04PM 40.8930 -89.8690 38° Northeast 463 533 26,600 -1,080 Descending FlightAware
07:05PM 40.9530 -89.8060 38° Northeast 457 526 26,000 -1,020 Descending FlightAware
07:05PM 41.0150 -89.7410 38° Northeast 451 519 25,400 -960 Descending FlightAware
07:06PM 41.0900 -89.6620 38° Northeast 443 510 24,700 -960 Descending FlightAware
07:07PM 41.1450 -89.5990 41° Northeast 446 513 24,100 -1,320 Descending FlightAware
07:07PM 41.1920 -89.5080 56° Northeast 459 528 23,100 -1,620 Descending FlightAware
07:08PM 41.2310 -89.4110 62° Northeast 450 518 22,000 -1,680 Descending FlightAware
07:09PM 41.2710 -89.3140 61° Northeast 438 504 20,900 -1,620 Descending FlightAware
07:09PM 41.3140 -89.2060 62° Northeast 425 489 19,700 -1,620 Descending FlightAware
07:10PM 41.3520 -89.1100 62° Northeast 413 475 18,600 -1,560 Descending FlightAware
07:11PM 41.3860 -89.0250 62° Northeast 401 461 17,600 -1,500 Descending FlightAware
07:11PM 41.4070 -88.9390 72° East 392 451 16,700 -1,320 Descending FlightAware
07:12PM 41.3950 -88.8290 98° East 346 398 15,800 -1,020 Descending FlightAware
07:13PM 41.3840 -88.7460 100° East 334 384 15,200 -960 Descending FlightAware
07:14PM 41.3730 -88.6640 100° East 317 365 14,500 -660 Descending FlightAware
07:14PM 41.3620 -88.5830 100° East 300 345 14,300 -360 Descending FlightAware
07:15PM 41.3670 -88.5340 82° East 275 316 14,100 -600 Descending FlightAware
07:15PM 41.3750 -88.5170 58° Northeast 260 299 13,900 -1,500 Descending FlightAware
07:15PM 41.3920 -88.5000 37° Northeast 249 287 13,400 -2,160 Descending FlightAware
07:16PM 41.4310 -88.4770 24° Northeast 243 280 12,000 -1,740 Descending FlightAware
07:17PM 41.4730 -88.4520 24° Northeast 241 277 11,100 -840 Descending FlightAware
07:17PM 41.5180 -88.4260 23° Northeast 237 273 10,800 -720 Descending FlightAware
07:18PM 41.5580 -88.4030 23° Northeast 237 273 10,100 -1,200 Descending FlightAware
07:19PM 41.5870 -88.3860 24° Northeast 237 273 9,500 -1,140 Descending FlightAware
07:19PM 41.6080 -88.3740 23° Northeast 237 273 9,200 -1,020 Descending FlightAware
07:19PM 41.6350 -88.3570 25° Northeast 235 270 8,700 -1,080 Descending FlightAware
07:20PM 41.6640 -88.3420 21° North 231 266 8,200 -960 Descending FlightAware
07:20PM 41.6800 -88.3330 23° Northeast 230 265 8,000 -300 Descending FlightAware
07:21PM 41.7070 -88.3180 23° Northeast 230 265 8,000 -420 Level FlightAware
07:21PM 41.7270 -88.3080 20° North 226 260 7,700 -1,200 Descending FlightAware
07:21PM 41.7530 -88.2940 22° Northeast 230 265 7,100 -1,080 Descending FlightAware
07:22PM 41.7650 -88.2890 17° North 228 262 7,000 -180 Descending FlightAware
07:22PM 41.7970 -88.2720 22° Northeast 226 260 7,000  Level FlightAware
07:22PM 41.8120 -88.2650 19° North 226 260 7,000  Level FlightAware
07:23PM 41.8330 -88.2550 20° North 222 255 7,000  Level FlightAware
07:23PM 41.8640 -88.2530 North 220 253 7,000 -1,140 Level FlightAware
07:24PM 41.8940 -88.2530 360° North 213 245 5,900 -1,920 Descending FlightAware
07:24PM 41.9220 -88.2540 358° North 219 252 5,100 -840 Descending FlightAware
07:25PM 41.9590 -88.2390 17° North 224 258 5,000 -240 Descending FlightAware
07:25PM 41.9660 -88.2180 66° East 232 267 4,900 -600 Descending FlightAware
07:25PM 41.9680 -88.2010 81° East 235 270 4,700 -1,380 Descending FlightAware
07:26PM 41.9680 -88.1650 90° East 239 275 4,100 -1,320 Descending FlightAware
07:26PM 41.9680 -88.1110 90° East 202 232 3,300 -1,200 Descending FlightAware
07:27PM 41.9690 -88.0780 88° East 180 207 2,800 -1,020 Descending FlightAware
07:27PM 41.9690 -88.0480 90° East 167 192 2,400 -840 Descending FlightAware
07:28PM 41.9690 -88.0250 90° East 141 162 2,100 -780 Descending FlightAware
07:28PM 41.9690 -88.0040 90° East 134 154 1,800 -780 Descending FlightAware
07:29PM 41.9690 -87.9680 90° East 136 157 1,300 -840 Descending FlightAware
07:29PM 41.9690 -87.9470 90° East 136 157 900 -720 Descending FlightAware
07:30PM 41.9690 -87.9250 90° East 131 151 700 -240 Descending FlightAware
07:30PM 41.9690 -87.9080 90° East 131 151 700  Level FlightAware